Time;durP1;ratioP1;P1;durP2;ratioP2;P2;SDS_P1;SDS_P2;PMS_P1;PMS_P2;Temp;Humidity;BMP_temperature;BMP_pressure;BME280_temperature;BME280_humidity;BME280_pressure;Samples;Min_cycle;Max_cycle;Signal;HPM_P1;HPM_P2
2021/08/24 00:02:47;;;;;;;5.90;2.50;;;17.80;99.90;;;;;;8256021;28;20054;-72
2021/08/24 00:06:48;;;;;;;7.30;2.45;;;17.70;99.90;;;;;;8257689;28;20398;-72
2021/08/24 00:10:56;;;;;;;5.10;2.40;;;17.70;99.90;;;;;;8257965;28;20046;-73
2021/08/24 00:14:58;;;;;;;6.22;2.83;;;17.70;99.90;;;;;;8256305;28;20038;-73
2021/08/24 00:19:00;;;;;;;8.02;2.50;;;17.60;99.90;;;;;;8252072;28;20046;-73
2021/08/24 00:23:05;;;;;;;6.18;2.45;;;17.60;99.90;;;;;;8257973;28;20061;-73
2021/08/24 00:27:07;;;;;;;5.18;2.20;;;17.50;99.90;;;;;;8259040;28;20050;-73
2021/08/24 00:31:09;;;;;;;4.93;2.78;;;17.50;99.90;;;;;;8274497;28;20062;-72
2021/08/24 00:35:10;;;;;;;4.68;2.60;;;17.50;99.90;;;;;;8256641;28;20059;-72
2021/08/24 00:39:12;;;;;;;6.32;2.60;;;17.40;99.90;;;;;;8274217;28;20504;-73
2021/08/24 00:43:14;;;;;;;6.03;2.60;;;17.40;99.90;;;;;;8257181;28;20042;-73
2021/08/24 00:47:22;;;;;;;5.15;2.45;;;17.30;99.90;;;;;;8259032;28;20069;-73
2021/08/24 00:51:26;;;;;;;6.20;2.50;;;17.30;99.90;;;;;;8258929;28;20130;-72
2021/08/24 00:55:28;;;;;;;7.85;2.50;;;17.20;99.90;;;;;;8255026;28;20053;-73
2021/08/24 00:59:30;;;;;;;5.07;2.28;;;17.20;99.90;;;;;;8257449;28;20054;-73
2021/08/24 01:03:37;;;;;;;6.47;2.40;;;17.20;99.90;;;;;;8255899;28;20050;-73
2021/08/24 01:07:50;;;;;;;4.43;1.92;;;17.20;99.90;;;;;;8257589;28;20496;-73
2021/08/24 01:12:21;;;;;;;5.90;2.42;;;17.10;99.90;;;;;;8257562;28;20117;-73
2021/08/24 01:16:34;;;;;;;5.82;2.35;;;17.10;99.90;;;;;;8256059;28;20101;-72
2021/08/24 01:20:59;;;;;;;6.18;2.67;;;17.00;99.90;;;;;;8252054;28;20050;-72
2021/08/24 01:25:06;;;;;;;4.75;2.60;;;17.00;99.90;;;;;;8254165;28;20050;-72
2021/08/24 01:29:08;;;;;;;6.15;2.70;;;17.00;99.90;;;;;;8255746;28;20042;-73
2021/08/24 01:33:23;;;;;;;5.65;2.35;;;16.90;99.90;;;;;;8255418;28;20046;-73
2021/08/24 01:37:32;;;;;;;6.70;2.95;;;16.90;99.90;;;;;;8257512;28;20109;-72
2021/08/24 01:42:07;;;;;;;8.52;2.70;;;16.90;99.90;;;;;;8257224;28;20425;-73
2021/08/24 01:46:32;;;;;;;5.93;2.83;;;16.80;99.90;;;;;;8252762;28;20046;-73
2021/08/24 01:50:40;;;;;;;9.00;2.83;;;16.80;99.90;;;;;;8256157;28;20449;-72
2021/08/24 01:54:47;;;;;;;6.30;3.08;;;16.80;99.90;;;;;;8255306;28;20043;-73
2021/08/24 01:58:57;;;;;;;5.82;2.97;;;16.70;99.90;;;;;;8257736;28;20081;-73
2021/08/24 02:03:04;;;;;;;6.18;3.05;;;16.70;99.90;;;;;;8253528;28;20058;-72
2021/08/24 02:07:08;;;;;;;8.48;3.28;;;16.70;99.90;;;;;;8258553;28;20496;-72
2021/08/24 02:11:11;;;;;;;5.47;3.00;;;16.60;99.90;;;;;;8260533;28;20034;-72
2021/08/24 02:15:15;;;;;;;6.82;3.42;;;16.60;99.90;;;;;;8261906;28;20117;-73
2021/08/24 02:19:25;;;;;;;6.88;3.63;;;16.60;99.90;;;;;;8262364;28;20058;-72
2021/08/24 02:23:32;;;;;;;7.28;3.30;;;16.50;99.90;;;;;;8260156;28;20457;-73
2021/08/24 02:27:38;;;;;;;7.93;3.25;;;16.50;99.90;;;;;;8277648;28;20462;-72
2021/08/24 02:31:54;;;;;;;7.90;3.35;;;16.50;99.90;;;;;;8262194;28;20046;-73
2021/08/24 02:36:01;;;;;;;9.23;3.95;;;16.40;99.90;;;;;;8260798;28;20050;-72
2021/08/24 02:40:39;;;;;;;8.15;3.50;;;16.40;99.90;;;;;;8261255;28;20047;-73
2021/08/24 02:44:51;;;;;;;9.27;4.07;;;16.40;99.90;;;;;;8257082;28;20053;-72
2021/08/24 02:48:59;;;;;;;7.15;3.78;;;16.40;99.90;;;;;;8260215;28;20046;-73
2021/08/24 02:53:02;;;;;;;7.85;3.67;;;16.30;99.90;;;;;;8259894;28;20042;-73
2021/08/24 02:57:05;;;;;;;9.20;4.22;;;16.30;99.90;;;;;;8260383;28;20118;-72
2021/08/24 03:01:07;;;;;;;7.15;4.38;;;16.30;99.90;;;;;;8262652;28;20046;-73
2021/08/24 03:05:10;;;;;;;9.10;3.63;;;16.30;99.90;;;;;;8259026;28;20038;-73
2021/08/24 03:09:14;;;;;;;6.70;4.15;;;16.30;99.90;;;;;;8260854;28;20050;-72
2021/08/24 03:13:25;;;;;;;7.65;4.18;;;16.30;99.90;;;;;;8260144;28;20042;-72
2021/08/24 03:18:06;;;;;;;7.25;4.15;;;16.30;99.90;;;;;;8259832;28;20422;-73
2021/08/24 03:22:10;;;;;;;8.07;3.25;;;16.20;99.90;;;;;;8276076;28;20050;-73
2021/08/24 03:26:13;;;;;;;7.30;3.55;;;16.20;99.90;;;;;;8258893;28;20058;-72
2021/08/24 03:30:16;;;;;;;10.27;4.32;;;16.20;99.90;;;;;;8266947;28;20474;-72
2021/08/24 03:34:18;;;;;;;7.78;3.80;;;16.10;99.90;;;;;;8262172;28;20458;-73
2021/08/24 03:38:20;;;;;;;8.30;4.43;;;16.10;99.90;;;;;;8276789;28;20049;-73
2021/08/24 03:42:22;;;;;;;8.57;4.05;;;16.20;99.90;;;;;;8262641;28;20091;-73
2021/08/24 03:46:23;;;;;;;13.32;4.30;;;16.10;99.90;;;;;;8260015;28;20069;-73
2021/08/24 03:50:25;;;;;;;9.35;4.30;;;16.10;99.90;;;;;;8279465;28;20458;-73
2021/08/24 03:54:27;;;;;;;9.50;4.05;;;16.10;99.90;;;;;;8263000;28;20034;-72
2021/08/24 03:58:29;;;;;;;6.90;4.20;;;16.20;99.90;;;;;;8259042;28;20050;-73
2021/08/24 04:02:31;;;;;;;7.35;3.78;;;16.10;99.90;;;;;;8256067;28;20046;-72
2021/08/24 04:06:33;;;;;;;7.43;4.03;;;16.10;99.90;;;;;;8263013;28;20527;-73
2021/08/24 04:10:35;;;;;;;8.85;4.03;;;16.00;99.90;;;;;;8259417;28;20050;-73
2021/08/24 04:14:37;;;;;;;9.88;4.32;;;16.10;99.90;;;;;;8258409;28;20386;-73
2021/08/24 04:18:40;;;;;;;8.68;4.22;;;16.00;99.90;;;;;;8259961;28;20046;-72
2021/08/24 04:22:46;;;;;;;8.50;4.53;;;16.00;99.90;;;;;;8256425;28;20050;-72
2021/08/24 04:26:48;;;;;;;8.60;4.87;;;15.90;99.90;;;;;;8261306;28;20072;-72
2021/08/24 04:30:50;;;;;;;8.35;4.43;;;15.90;99.90;;;;;;8259863;28;20050;-73
2021/08/24 04:34:53;;;;;;;9.32;4.30;;;15.90;99.90;;;;;;8256176;28;20060;-73
2021/08/24 04:38:54;;;;;;;8.27;4.30;;;15.90;99.90;;;;;;8259303;28;20053;-73
2021/08/24 04:42:56;;;;;;;9.55;4.55;;;15.90;99.90;;;;;;8257607;28;20398;-73
2021/08/24 04:46:58;;;;;;;6.97;4.20;;;15.80;99.90;;;;;;8254293;28;20046;-73
2021/08/24 04:51:00;;;;;;;11.70;4.57;;;15.80;99.90;;;;;;8257236;28;20058;-73
2021/08/24 04:55:02;;;;;;;8.48;4.85;;;15.80;99.90;;;;;;8257226;28;20042;-73
2021/08/24 04:59:04;;;;;;;9.85;4.88;;;15.80;99.90;;;;;;8273371;28;20057;-73
2021/08/24 05:03:06;;;;;;;10.10;5.15;;;15.80;99.90;;;;;;8250234;28;20053;-73
2021/08/24 05:07:08;;;;;;;7.90;4.88;;;15.80;99.90;;;;;;8254568;28;20050;-72
2021/08/24 05:11:10;;;;;;;11.50;5.47;;;15.80;99.90;;;;;;8273765;28;20042;-73
2021/08/24 05:15:11;;;;;;;9.98;5.53;;;15.80;99.90;;;;;;8259787;28;20045;-73
2021/08/24 05:19:13;;;;;;;10.65;5.30;;;15.80;99.90;;;;;;8270605;28;20479;-73
2021/08/24 05:23:15;;;;;;;10.35;5.03;;;15.90;99.90;;;;;;8253800;28;20050;-73
2021/08/24 05:27:17;;;;;;;10.45;5.03;;;15.90;99.90;;;;;;8254672;28;20057;-73
2021/08/24 05:31:19;;;;;;;7.63;4.68;;;15.90;99.90;;;;;;8270033;28;20051;-72
2021/08/24 05:35:22;;;;;;;8.75;5.03;;;16.00;99.90;;;;;;8249478;28;20050;-73
2021/08/24 05:39:23;;;;;;;9.95;5.93;;;16.00;99.90;;;;;;8257350;28;20042;-73
2021/08/24 05:43:26;;;;;;;10.07;5.32;;;16.10;99.90;;;;;;8261772;28;20418;-72
2021/08/24 05:47:29;;;;;;;9.63;5.47;;;16.20;99.90;;;;;;8260481;28;20117;-73
2021/08/24 05:51:31;;;;;;;12.30;5.30;;;16.30;99.90;;;;;;8258383;28;20061;-73
2021/08/24 05:55:32;;;;;;;9.13;4.47;;;16.40;99.90;;;;;;8258779;28;20045;-73
2021/08/24 05:59:36;;;;;;;10.65;5.55;;;16.50;99.90;;;;;;8255704;28;20055;-73
2021/08/24 06:03:38;;;;;;;11.25;5.70;;;16.60;99.90;;;;;;8254937;28;20050;-73
2021/08/24 06:07:40;;;;;;;13.68;5.68;;;16.70;99.90;;;;;;8253425;28;20061;-72
2021/08/24 06:11:46;;;;;;;8.45;5.25;;;16.80;99.90;;;;;;8257135;28;20050;-73
2021/08/24 06:15:48;;;;;;;10.25;4.75;;;16.80;99.90;;;;;;8255332;28;20108;-73
2021/08/24 06:19:50;;;;;;;13.55;4.72;;;16.90;99.90;;;;;;8269024;28;20053;-73
2021/08/24 06:23:52;;;;;;;9.85;4.68;;;17.00;99.90;;;;;;8252825;28;20152;-73
2021/08/24 06:27:54;;;;;;;8.82;4.78;;;17.00;99.90;;;;;;8251487;28;20063;-73
2021/08/24 06:31:59;;;;;;;9.05;4.90;;;17.20;99.90;;;;;;8270801;28;20494;-73
2021/08/24 06:36:02;;;;;;;9.30;4.65;;;17.20;99.90;;;;;;8253965;28;20042;-72
2021/08/24 06:40:06;;;;;;;8.25;4.75;;;17.30;99.90;;;;;;8255744;28;20054;-73
2021/08/24 06:44:09;;;;;;;6.85;4.13;;;17.30;99.90;;;;;;8252535;28;20598;-73
2021/08/24 06:48:11;;;;;;;8.77;4.65;;;17.40;99.90;;;;;;8252203;28;20042;-73
2021/08/24 06:52:13;;;;;;;8.55;4.35;;;17.50;99.90;;;;;;8254985;28;20395;-72
2021/08/24 06:56:14;;;;;;;8.35;4.55;;;17.50;99.90;;;;;;8271586;28;20098;-73
2021/08/24 07:00:19;;;;;;;11.68;4.95;;;17.60;99.90;;;;;;8256690;28;20050;-73
2021/08/24 07:04:21;;;;;;;8.35;4.97;;;17.70;99.90;;;;;;8267502;28;20054;-73
2021/08/24 07:08:23;;;;;;;8.80;4.47;;;17.80;99.90;;;;;;8270652;28;20062;-73
2021/08/24 07:12:25;;;;;;;8.23;4.35;;;17.80;99.90;;;;;;8270288;28;20045;-73
2021/08/24 07:16:27;;;;;;;10.32;4.68;;;17.90;99.90;;;;;;8257683;28;20051;-73
2021/08/24 07:20:29;;;;;;;9.48;4.50;;;17.90;99.90;;;;;;8255970;28;20050;-73
2021/08/24 07:24:31;;;;;;;9.20;4.70;;;18.00;99.90;;;;;;8253311;28;20058;-72
2021/08/24 07:28:33;;;;;;;9.07;4.28;;;18.10;99.90;;;;;;8268329;28;20046;-73
2021/08/24 07:32:35;;;;;;;8.63;3.70;;;18.10;99.90;;;;;;8252867;28;20057;-72
2021/08/24 07:36:37;;;;;;;8.32;3.58;;;18.20;99.90;;;;;;8256621;28;20050;-74
2021/08/24 07:40:38;;;;;;;8.48;4.47;;;18.30;99.90;;;;;;8256931;28;20046;-73
2021/08/24 07:44:40;;;;;;;10.98;4.90;;;18.40;99.90;;;;;;8254023;28;20053;-72
2021/08/24 07:48:42;;;;;;;7.97;4.15;;;18.50;99.90;;;;;;8255639;28;20042;-72
2021/08/24 07:52:43;;;;;;;9.55;4.55;;;18.60;99.90;;;;;;8252468;28;20513;-72
2021/08/24 07:56:45;;;;;;;9.68;4.50;;;18.70;99.90;;;;;;8255650;28;20065;-72
2021/08/24 08:00:47;;;;;;;9.80;5.00;;;18.70;99.90;;;;;;8255384;28;20441;-73
2021/08/24 08:04:50;;;;;;;9.48;5.13;;;18.70;99.90;;;;;;8252755;28;20130;-73
2021/08/24 08:08:51;;;;;;;7.97;4.85;;;18.70;99.90;;;;;;8256591;28;20104;-72
2021/08/24 08:12:54;;;;;;;8.25;4.35;;;18.80;99.90;;;;;;8251801;28;20051;-73
2021/08/24 08:16:56;;;;;;;7.68;4.32;;;18.80;99.90;;;;;;8269732;28;20460;-73
2021/08/24 08:20:58;;;;;;;9.25;4.90;;;18.90;99.90;;;;;;8269243;28;20042;-72
2021/08/24 08:25:00;;;;;;;9.27;4.40;;;19.00;99.90;;;;;;8253361;28;20590;-73
2021/08/24 08:29:09;;;;;;;7.00;4.50;;;19.00;99.90;;;;;;8254802;28;20057;-73
2021/08/24 08:33:12;;;;;;;8.40;4.30;;;19.10;99.90;;;;;;8254058;28;20422;-72
2021/08/24 08:37:14;;;;;;;6.28;3.80;;;19.20;99.90;;;;;;8254380;28;20054;-73
2021/08/24 08:41:42;;;;;;;9.68;4.25;;;19.30;99.90;;;;;;8270029;28;20112;-72
2021/08/24 08:45:49;;;;;;;9.20;4.15;;;19.40;99.90;;;;;;8242343;28;20045;-72
2021/08/24 08:49:56;;;;;;;;;;;19.40;99.90;;;;;;8254653;28;20042;-73
2021/08/24 08:54:16;;;;;;;7.13;3.78;;;19.60;99.90;;;;;;8252672;28;19926;-73
2021/08/24 08:58:39;;;;;;;7.93;4.20;;;19.60;99.90;;;;;;8250715;28;20046;-72
2021/08/24 09:02:50;;;;;;;7.38;3.72;;;19.70;99.90;;;;;;8252109;28;20105;-72
2021/08/24 09:06:59;;;;;;;8.65;4.60;;;19.60;99.90;;;;;;8253822;28;20054;-73
2021/08/24 09:11:01;;;;;;;9.73;4.53;;;19.50;99.90;;;;;;8251399;28;20058;-73
2021/08/24 09:15:07;;;;;;;7.30;4.30;;;19.50;99.90;;;;;;8247582;28;20095;-73
2021/08/24 09:19:51;;;;;;;7.70;4.55;;;19.50;99.90;;;;;;8261111;28;20050;-72
2021/08/24 09:23:55;;;;;;;9.90;4.82;;;19.50;99.90;;;;;;8239694;28;20043;-72
2021/08/24 09:28:10;;;;;;;7.63;4.13;;;19.50;99.90;;;;;;8247333;28;20101;-72
2021/08/24 09:32:19;;;;;;;10.20;5.00;;;19.50;99.90;;;;;;8243990;28;20061;-72
2021/08/24 09:36:21;;;;;;;7.00;4.03;;;19.60;99.90;;;;;;8247597;28;20046;-72
2021/08/24 09:40:39;;;;;;;9.20;4.20;;;19.60;99.90;;;;;;8250975;28;20050;-73
2021/08/24 09:44:41;;;;;;;7.28;4.13;;;19.70;99.90;;;;;;8251711;28;20046;-73
2021/08/24 09:48:54;;;;;;;7.35;4.18;;;19.70;99.90;;;;;;8253919;28;20046;-73
2021/08/24 09:52:56;;;;;;;7.03;3.80;;;19.80;99.90;;;;;;8250695;28;20046;-72
2021/08/24 09:57:36;;;;;;;10.82;4.43;;;19.80;99.90;;;;;;8253164;28;20056;-73
2021/08/24 10:01:51;;;;;;;8.63;3.90;;;19.80;99.90;;;;;;8252637;28;20138;-73
2021/08/24 10:06:03;;;;;;;8.38;3.90;;;19.80;99.90;;;;;;8255336;28;20430;-73
2021/08/24 10:10:21;;;;;;;5.82;3.72;;;19.90;99.90;;;;;;8253878;28;20395;-73
2021/08/24 10:14:26;;;;;;;7.15;3.30;;;19.90;99.90;;;;;;8250047;28;20051;-73
2021/08/24 10:18:30;;;;;;;7.90;4.20;;;19.90;99.90;;;;;;8250668;28;20379;-73
2021/08/24 10:22:36;;;;;;;10.25;3.95;;;20.00;99.90;;;;;;8252003;28;20054;-73
2021/08/24 10:26:40;;;;;;;8.27;3.17;;;20.10;99.90;;;;;;8250659;28;20054;-73
2021/08/24 10:31:00;;;;;;;6.80;3.65;;;20.20;99.90;;;;;;8259026;28;20490;-73
2021/08/24 10:35:25;;;;;;;6.53;3.78;;;20.20;99.90;;;;;;8271574;28;20050;-73
2021/08/24 10:39:29;;;;;;;8.93;3.30;;;20.30;99.90;;;;;;8259064;28;20713;-73
2021/08/24 10:43:31;;;;;;;6.63;3.30;;;20.30;99.90;;;;;;8256982;28;20058;-72
2021/08/24 10:47:39;;;;;;;5.93;3.17;;;20.40;99.90;;;;;;8257187;28;20058;-73
2021/08/24 10:51:51;;;;;;;5.88;3.30;;;20.40;99.90;;;;;;8258947;28;20043;-73
2021/08/24 10:55:59;;;;;;;8.00;3.30;;;20.50;99.90;;;;;;8257854;28;20053;-72
2021/08/24 11:00:11;;;;;;;7.35;3.60;;;20.50;99.90;;;;;;8256376;28;20142;-72
2021/08/24 11:04:22;;;;;;;6.30;2.78;;;20.60;99.90;;;;;;8254330;28;20502;-73
2021/08/24 11:08:43;;;;;;;6.93;3.70;;;20.70;99.90;;;;;;8252150;28;20053;-72
2021/08/24 11:13:12;;;;;;;7.13;3.15;;;20.70;99.90;;;;;;8255509;28;20043;-72
2021/08/24 11:17:35;;;;;;;6.47;2.88;;;20.80;99.90;;;;;;8255055;28;20042;-72
2021/08/24 11:21:40;;;;;;;5.38;2.90;;;20.80;99.90;;;;;;8255474;28;20093;-73
2021/08/24 11:25:48;;;;;;;5.50;2.80;;;20.90;99.90;;;;;;8269570;28;20065;-72
2021/08/24 11:29:59;;;;;;;4.50;2.80;;;21.00;99.90;;;;;;8254374;28;20062;-73
2021/08/24 11:34:09;;;;;;;6.22;2.88;;;21.00;99.90;;;;;;8254020;28;20054;-73
2021/08/24 11:38:17;;;;;;;7.63;3.00;;;21.10;99.90;;;;;;8257252;28;20054;-73
2021/08/24 11:42:32;;;;;;;6.40;2.85;;;21.30;99.90;;;;;;8248359;28;20573;-73
2021/08/24 11:46:48;;;;;;;4.38;2.55;;;21.40;99.90;;;;;;8257008;28;20046;-73
2021/08/24 11:50:53;;;;;;;5.20;2.47;;;21.40;99.90;;;;;;8254732;28;20062;-73
2021/08/24 11:55:08;;;;;;;6.07;2.95;;;21.50;99.90;;;;;;8254125;28;20279;-72
2021/08/24 11:59:32;;;;;;;;;;;21.50;99.90;;;;;;8255301;28;20050;-73
2021/08/24 12:03:37;;;;;;;7.10;3.10;;;21.60;99.90;;;;;;8250974;28;19929;-73
2021/08/24 12:07:41;;;;;;;7.82;2.88;;;21.70;99.90;;;;;;8267053;28;20058;-72
2021/08/24 12:11:46;;;;;;;6.75;2.95;;;21.70;99.90;;;;;;8252059;28;20051;-73
2021/08/24 12:15:48;;;;;;;4.93;2.72;;;21.70;99.90;;;;;;8252220;28;20097;-72
2021/08/24 12:19:57;;;;;;;5.85;2.78;;;21.60;99.90;;;;;;8254668;28;20046;-72
2021/08/24 12:24:26;;;;;;;6.18;2.60;;;21.50;99.90;;;;;;8251753;28;20402;-73
2021/08/24 12:28:37;;;;;;;6.80;2.63;;;21.40;99.90;;;;;;8254080;28;20050;-73
2021/08/24 12:32:39;;;;;;;6.18;3.20;;;21.20;99.90;;;;;;8250186;28;20046;-73
2021/08/24 12:36:46;;;;;;;5.95;2.70;;;21.30;99.90;;;;;;8252688;28;20134;-73
2021/08/24 12:40:53;;;;;;;4.72;2.75;;;21.30;99.90;;;;;;8253070;28;20050;-73
2021/08/24 12:45:00;;;;;;;7.07;2.63;;;21.40;99.90;;;;;;8251331;28;20057;-73
2021/08/24 12:49:15;;;;;;;4.95;2.78;;;21.50;99.90;;;;;;8253024;28;20054;-73
2021/08/24 12:53:29;;;;;;;5.95;2.67;;;21.50;99.90;;;;;;8248256;28;20045;-72
2021/08/24 12:57:36;;;;;;;5.88;2.55;;;21.40;99.90;;;;;;8252129;28;20043;-73
2021/08/24 13:01:39;;;;;;;7.53;2.20;;;21.50;99.90;;;;;;8252692;28;20336;-72
2021/08/24 13:05:42;;;;;;;5.28;2.80;;;21.50;99.90;;;;;;8251580;28;20054;-73
2021/08/24 13:09:47;;;;;;;6.45;2.80;;;21.60;99.90;;;;;;8254041;28;20386;-72
2021/08/24 13:13:54;;;;;;;5.70;2.35;;;21.60;99.90;;;;;;8251964;28;20058;-73
2021/08/24 13:18:28;;;;;;;4.80;2.20;;;21.70;99.90;;;;;;8254043;28;20038;-72
2021/08/24 13:22:29;;;;;;;5.40;2.40;;;21.80;99.90;;;;;;8249200;28;20057;-72
2021/08/24 13:26:52;;;;;;;4.68;2.63;;;21.70;99.90;;;;;;8251173;28;20062;-74
2021/08/24 13:31:06;;;;;;;6.55;2.60;;;21.60;99.90;;;;;;8253304;28;20046;-73
2021/08/24 13:35:22;;;;;;;4.57;2.55;;;21.50;99.90;;;;;;8251045;28;20046;-72
2021/08/24 13:39:24;;;;;;;6.22;2.40;;;21.50;99.90;;;;;;8253499;28;20046;-73
2021/08/24 13:43:28;;;;;;;6.20;2.53;;;21.60;99.90;;;;;;8246123;28;20046;-73
2021/08/24 13:47:30;;;;;;;4.28;2.40;;;21.70;99.90;;;;;;8251388;28;20440;-73
2021/08/24 13:51:57;;;;;;;4.75;2.33;;;21.80;99.90;;;;;;8252487;28;20076;-74
2021/08/24 13:56:01;;;;;;;5.47;2.75;;;21.90;99.90;;;;;;8253691;28;20045;-73
2021/08/24 14:00:19;;;;;;;4.72;2.50;;;21.90;99.90;;;;;;8253016;28;20050;-73
2021/08/24 14:04:48;;;;;;;5.55;2.60;;;21.90;99.90;;;;;;8271712;28;20073;-72
2021/08/24 14:08:49;;;;;;;4.55;2.67;;;21.90;99.90;;;;;;8273477;28;20822;-73
2021/08/24 14:12:57;;;;;;;4.40;2.50;;;22.00;99.90;;;;;;8258235;28;20499;-72
2021/08/24 14:17:01;;;;;;;5.95;2.70;;;22.10;99.90;;;;;;8256476;28;20042;-73
2021/08/24 14:21:11;;;;;;;4.32;2.30;;;22.10;99.90;;;;;;8258594;28;20402;-72
2021/08/24 14:25:18;;;;;;;5.72;2.60;;;21.90;99.90;;;;;;8251282;28;20058;-73
2021/08/24 14:29:23;;;;;;;4.35;2.60;;;21.80;99.90;;;;;;8258186;28;20406;-72
2021/08/24 14:33:28;;;;;;;5.18;2.40;;;21.80;99.90;;;;;;8255280;28;20042;-72
2021/08/24 14:37:47;;;;;;;5.53;2.47;;;21.80;99.90;;;;;;8258779;28;20069;-73
2021/08/24 14:41:56;;;;;;;4.65;2.35;;;21.80;99.90;;;;;;8258073;28;20047;-73
2021/08/24 14:45:58;;;;;;;5.55;2.70;;;22.00;99.90;;;;;;8257917;28;20065;-73
2021/08/24 14:50:03;;;;;;;5.15;2.00;;;22.10;99.90;;;;;;8256311;28;20065;-72
2021/08/24 14:54:04;;;;;;;4.30;2.17;;;22.10;99.90;;;;;;8257077;28;20050;-72
2021/08/24 14:58:21;;;;;;;5.75;2.40;;;22.10;99.90;;;;;;8254766;28;20425;-72
2021/08/24 15:02:42;;;;;;;4.13;2.13;;;22.00;99.90;;;;;;8256390;28;20050;-72
2021/08/24 15:06:50;;;;;;;5.22;2.42;;;22.10;99.90;;;;;;8255539;28;20053;-73
2021/08/24 15:11:19;;;;;;;4.07;2.30;;;22.10;99.90;;;;;;8256881;28;20564;-73
2021/08/24 15:15:33;;;;;;;4.22;2.28;;;22.30;99.90;;;;;;8256527;28;20049;-72
2021/08/24 15:19:55;;;;;;;4.88;2.20;;;22.20;99.90;;;;;;8272417;28;20073;-72
2021/08/24 15:24:20;;;;;;;4.20;2.20;;;22.10;99.90;;;;;;8254192;28;20395;-73
2021/08/24 15:28:23;;;;;;;4.25;2.33;;;22.00;99.90;;;;;;8256406;28;20611;-72
2021/08/24 15:32:31;;;;;;;8.20;2.45;;;22.00;99.90;;;;;;8252631;28;20047;-73
2021/08/24 15:36:33;;;;;;;6.45;2.13;;;22.10;99.90;;;;;;8254508;28;20038;-72
2021/08/24 15:40:44;;;;;;;4.82;1.88;;;22.20;99.90;;;;;;8249763;28;20054;-73
2021/08/24 15:44:47;;;;;;;6.15;2.22;;;22.30;99.90;;;;;;8242306;28;20061;-73
2021/08/24 15:48:49;;;;;;;3.60;1.70;;;22.40;99.90;;;;;;8247088;28;20482;-73
2021/08/24 15:52:51;;;;;;;4.88;1.90;;;22.40;99.90;;;;;;8247260;28;20061;-73
2021/08/24 15:56:54;;;;;;;3.47;1.60;;;22.30;99.90;;;;;;8247992;28;20042;-73
2021/08/24 16:00:56;;;;;;;4.50;1.98;;;22.30;99.90;;;;;;8249140;28;20050;-72
2021/08/24 16:04:58;;;;;;;4.13;1.88;;;22.40;99.90;;;;;;8244533;28;20108;-72
2021/08/24 16:08:59;;;;;;;3.65;1.85;;;22.50;99.90;;;;;;8245866;28;20061;-73
2021/08/24 16:13:03;;;;;;;4.97;2.10;;;22.70;99.90;;;;;;8250173;28;20046;-73
2021/08/24 16:17:05;;;;;;;4.45;1.80;;;22.70;99.90;;;;;;8244802;28;20042;-72
2021/08/24 16:21:09;;;;;;;4.53;1.80;;;22.90;99.90;;;;;;8247626;28;20046;-73
2021/08/24 16:25:15;;;;;;;5.80;2.50;;;23.00;99.90;;;;;;8248434;28;20061;-72
2021/08/24 16:29:17;;;;;;;4.20;2.00;;;23.10;99.90;;;;;;8244632;28;20054;-73
2021/08/24 16:33:19;;;;;;;4.60;2.17;;;23.20;99.90;;;;;;8246021;28;20049;-73
2021/08/24 16:37:21;;;;;;;4.07;2.15;;;23.30;99.90;;;;;;8251478;28;20043;-73
2021/08/24 16:41:23;;;;;;;4.60;2.20;;;23.40;99.90;;;;;;8250579;28;20051;-73
2021/08/24 16:45:27;;;;;;;5.72;2.15;;;23.50;99.90;;;;;;8248593;28;20042;-73
2021/08/24 16:49:29;;;;;;;4.53;2.15;;;23.50;99.90;;;;;;8252177;28;20145;-72
2021/08/24 16:53:31;;;;;;;3.50;1.92;;;23.60;99.90;;;;;;8249935;28;20504;-74
2021/08/24 16:57:33;;;;;;;4.43;1.75;;;23.70;99.90;;;;;;8252372;28;20061;-75
2021/08/24 17:01:34;;;;;;;4.72;1.90;;;23.80;99.90;;;;;;8253414;28;20050;-73
2021/08/24 17:05:37;;;;;;;5.90;2.20;;;23.90;99.90;;;;;;8247868;28;20763;-74
2021/08/24 17:09:43;;;;;;;4.95;2.08;;;24.00;99.90;;;;;;8249089;28;20557;-73
2021/08/24 17:13:45;;;;;;;5.57;2.25;;;24.00;99.90;;;;;;8245911;28;20047;-73
2021/08/24 17:17:47;;;;;;;5.72;2.08;;;24.10;99.90;;;;;;8248228;28;20045;-73
2021/08/24 17:21:49;;;;;;;4.95;2.30;;;24.10;99.90;;;;;;8251888;28;20050;-73
2021/08/24 17:26:06;;;;;;;4.25;1.98;;;24.10;99.90;;;;;;8264719;28;20046;-73
2021/08/24 17:30:09;;;;;;;4.32;2.13;;;24.00;99.90;;;;;;8249421;28;20478;-74
2021/08/24 17:34:11;;;;;;;6.85;2.17;;;23.90;99.90;;;;;;8250315;28;20484;-73
2021/08/24 17:38:12;;;;;;;4.80;1.98;;;23.80;99.90;;;;;;8256851;28;20049;-72
2021/08/24 17:42:14;;;;;;;3.50;2.00;;;23.50;99.90;;;;;;8276465;28;20513;-73
2021/08/24 17:46:16;;;;;;;6.22;1.90;;;23.20;99.90;;;;;;8277597;28;20050;-73
2021/08/24 17:50:26;;;;;;;5.53;1.90;;;23.00;99.90;;;;;;8277046;28;20120;-73
2021/08/24 17:54:28;;;;;;;6.97;2.15;;;22.90;99.90;;;;;;8277608;28;20054;-73
2021/08/24 17:58:30;;;;;;;4.78;2.10;;;22.70;99.90;;;;;;8264456;28;20061;-73
2021/08/24 18:02:31;;;;;;;4.22;1.83;;;22.60;99.90;;;;;;8260932;28;20391;-73
2021/08/24 18:06:43;;;;;;;6.57;2.00;;;22.50;99.90;;;;;;8261581;28;20104;-73
2021/08/24 18:10:51;;;;;;;4.18;2.10;;;22.40;99.90;;;;;;8263207;28;20061;-72
2021/08/24 18:14:53;;;;;;;4.30;2.00;;;22.30;99.90;;;;;;8262031;28;20513;-73
2021/08/24 18:18:55;;;;;;;4.78;1.92;;;22.20;99.90;;;;;;8262855;28;20050;-73
2021/08/24 18:22:58;;;;;;;3.80;1.90;;;22.10;99.90;;;;;;8263373;28;20494;-73
2021/08/24 18:27:02;;;;;;;4.63;2.10;;;21.90;99.90;;;;;;8262806;28;20441;-73
2021/08/24 18:31:03;;;;;;;4.53;2.15;;;21.80;99.90;;;;;;8262457;28;20057;-73
2021/08/24 18:35:07;;;;;;;4.13;2.08;;;21.70;99.90;;;;;;8261297;28;20039;-73
2021/08/24 18:39:09;;;;;;;4.30;2.20;;;21.60;99.90;;;;;;8277347;28;20098;-73
2021/08/24 18:43:13;;;;;;;4.60;2.22;;;21.50;99.90;;;;;;8262170;28;20421;-73
2021/08/24 18:47:15;;;;;;;6.93;2.40;;;21.40;99.90;;;;;;8260289;28;20073;-73
2021/08/24 18:51:22;;;;;;;4.82;2.10;;;21.30;99.90;;;;;;8272663;28;20073;-73
2021/08/24 18:55:38;;;;;;;5.28;2.42;;;21.30;99.90;;;;;;8257063;28;20051;-73
2021/08/24 18:59:40;;;;;;;6.57;2.50;;;21.20;99.90;;;;;;8257633;28;20047;-73
2021/08/24 19:03:45;;;;;;;4.88;2.08;;;21.10;99.90;;;;;;8256911;28;20382;-73
2021/08/24 19:07:46;;;;;;;4.72;2.05;;;21.00;99.90;;;;;;8254347;28;20140;-73
2021/08/24 19:11:48;;;;;;;5.30;2.15;;;20.90;99.90;;;;;;8253595;28;20058;-73
2021/08/24 19:15:52;;;;;;;5.30;2.03;;;20.80;99.90;;;;;;8257401;28;20053;-73
2021/08/24 19:19:53;;;;;;;4.20;2.22;;;20.70;99.90;;;;;;8256986;28;20062;-73
2021/08/24 19:23:55;;;;;;;3.97;2.00;;;20.60;99.90;;;;;;8255801;28;20054;-74
2021/08/24 19:27:58;;;;;;;6.88;2.28;;;20.50;99.90;;;;;;8255512;28;20422;-73
2021/08/24 19:32:00;;;;;;;4.65;2.28;;;20.40;99.90;;;;;;8254859;28;20130;-73
2021/08/24 19:36:02;;;;;;;6.00;2.20;;;20.30;99.90;;;;;;8245844;28;20046;-72
2021/08/24 19:40:07;;;;;;;6.55;2.33;;;20.20;99.90;;;;;;8255073;28;20046;-73
2021/08/24 19:44:09;;;;;;;4.60;2.25;;;20.10;99.90;;;;;;8254001;28;20121;-73
2021/08/24 19:48:12;;;;;;;5.70;2.80;;;20.00;99.90;;;;;;8253480;28;20069;-72
2021/08/24 19:52:14;;;;;;;5.93;2.50;;;20.00;99.90;;;;;;8254872;28;20057;-72
2021/08/24 19:56:16;;;;;;;6.07;2.40;;;19.90;99.90;;;;;;8254462;28;20050;-72
2021/08/24 20:00:18;;;;;;;4.85;2.50;;;19.80;99.90;;;;;;8254310;28;20077;-73
2021/08/24 20:04:20;;;;;;;6.03;2.40;;;19.70;99.90;;;;;;8253071;28;20054;-72
2021/08/24 20:08:26;;;;;;;5.25;2.78;;;19.70;99.90;;;;;;8253778;28;20462;-73
2021/08/24 20:12:29;;;;;;;5.32;2.45;;;19.60;99.90;;;;;;8251836;28;20202;-73
2021/08/24 20:16:32;;;;;;;5.65;2.78;;;19.60;99.90;;;;;;8251207;28;20050;-73
2021/08/24 20:20:39;;;;;;;4.88;2.58;;;19.50;99.90;;;;;;8250341;28;20069;-73
2021/08/24 20:24:41;;;;;;;5.32;2.72;;;19.40;99.90;;;;;;8248150;28;20045;-72
2021/08/24 20:28:46;;;;;;;6.20;2.58;;;19.40;99.90;;;;;;8241253;28;20060;-73
2021/08/24 20:32:48;;;;;;;6.82;2.78;;;19.30;99.90;;;;;;8241322;28;20070;-73
2021/08/24 20:36:50;;;;;;;7.18;2.70;;;19.20;99.90;;;;;;8247131;28;20483;-73
2021/08/24 20:40:55;;;;;;;4.95;2.67;;;19.10;99.90;;;;;;8259402;28;20050;-73
2021/08/24 20:44:57;;;;;;;4.95;2.78;;;19.00;99.90;;;;;;8245509;28;20057;-73
2021/08/24 20:48:59;;;;;;;5.65;3.03;;;19.00;99.90;;;;;;8243683;28;20050;-73
2021/08/24 20:53:04;;;;;;;5.43;2.75;;;18.90;99.90;;;;;;8247164;28;20067;-73
2021/08/24 20:57:06;;;;;;;7.05;2.83;;;18.80;99.90;;;;;;8244991;28;20038;-73
2021/08/24 21:01:38;;;;;;;7.18;3.13;;;18.80;99.90;;;;;;8250074;28;20049;-73
2021/08/24 21:05:44;;;;;;;5.95;3.25;;;18.80;99.90;;;;;;8257230;28;20043;-72
2021/08/24 21:09:46;;;;;;;6.95;3.42;;;18.70;99.90;;;;;;8259397;28;20050;-73
2021/08/24 21:13:48;;;;;;;7.53;4.07;;;18.70;99.90;;;;;;8260077;28;20513;-73
2021/08/24 21:17:50;;;;;;;7.93;4.18;;;18.70;99.90;;;;;;8257844;28;20054;-73
2021/08/24 21:21:51;;;;;;;8.27;4.35;;;18.70;99.90;;;;;;8257071;28;20038;-73